Dolph, Arkansas
Current Conditions -  °F | °C
As of 5:53 PM on Saturday 22 Nov 2014 (Local Time) from KBPK Reporting Station
Broken Clouds Broken Clouds  
Wind Chill: 51°   Ceiling: 3300
Heat Index: 51°   Visibility: 7mi
Dew Point: 51°   Wind: 8mph
Humidity: 100%   Direction: 150°SSE
Pressure: 29.97"   Gusts: NA
Location:  36.23°N, 92.11°W
Report Text: KBPK 222353Z AUTO 15007KT 7SM BKN033 11/11 A2997 RMK AO2 SLP149 60040 T01060106 10117 20106 58013
Loading
Personal Weather Stations






























Interactive Weather Map New forecast layout! Learn more

10-Day Weather Forecast

Advertisements
Track Severe Weather on mobile